Time;durP1;ratioP1;P1;durP2;ratioP2;P2;SDS_P1;SDS_P2;PMS_P1;PMS_P2;Temp;Humidity;BMP_temperature;BMP_pressure;BME280_temperature;BME280_humidity;BME280_pressure;Samples;Min_cycle;Max_cycle;Signal;HPM_P1;HPM_P2
2022/10/16 00:00:36;;;;;;;1.33;0.90;;;;;;;14.31;82.34;100335.97;4991516;28;20239;-83
2022/10/16 00:03:03;;;;;;;1.93;0.63;;;;;;;14.28;81.89;100347.81;4986514;28;20745;-83
2022/10/16 00:05:30;;;;;;;3.50;1.30;;;;;;;14.23;81.99;100344.66;4991758;28;20559;-83
2022/10/16 00:07:56;;;;;;;3.53;0.87;;;;;;;14.15;81.53;100342.59;4990356;28;20212;-83
2022/10/16 00:10:24;;;;;;;0.97;0.80;;;;;;;14.10;81.87;100346.66;4990436;28;20241;-83
2022/10/16 00:12:51;;;;;;;0.97;0.80;;;;;;;14.05;81.60;100348.84;4993698;28;20214;-83
2022/10/16 00:15:17;;;;;;;2.40;1.20;;;;;;;13.98;82.11;100342.28;5005139;28;20883;-83
2022/10/16 00:17:44;;;;;;;1.67;0.90;;;;;;;13.90;81.93;100338.44;4995892;28;20210;-83
2022/10/16 00:20:11;;;;;;;1.23;1.13;;;;;;;13.87;82.73;100352.06;4997315;28;20216;-84
2022/10/16 00:22:39;;;;;;;1.50;0.90;;;;;;;13.83;82.79;100355.09;4998597;28;20214;-83
2022/10/16 00:25:07;;;;;;;0.80;0.70;;;;;;;13.80;83.22;100353.53;5004600;28;20212;-83
2022/10/16 00:27:35;;;;;;;2.03;0.97;;;;;;;13.75;82.89;100350.41;5001089;28;20210;-84
2022/10/16 00:30:02;;;;;;;1.30;1.20;;;;;;;13.70;83.44;100349.06;5007709;28;20583;-83
2022/10/16 00:32:29;;;;;;;3.07;1.00;;;;;;;13.64;83.34;100353.06;4999822;28;20201;-84
2022/10/16 00:34:55;;;;;;;1.63;1.00;;;;;;;13.58;83.64;100358.09;5009043;28;20222;-84
2022/10/16 00:37:22;;;;;;;1.60;1.03;;;;;;;13.51;84.39;100363.91;4999125;28;20210;-84
2022/10/16 00:39:49;;;;;;;2.23;1.20;;;;;;;13.49;84.96;100359.66;4991379;28;21079;-84
2022/10/16 00:42:16;;;;;;;1.37;1.10;;;;;;;13.49;85.56;100378.38;4996249;28;20204;-83
2022/10/16 00:44:52;;;;;;;1.90;1.20;;;;;;;13.49;85.84;100371.22;5000637;28;20209;-84
2022/10/16 00:47:23;;;;;;;1.90;1.10;;;;;;;13.53;86.34;100369.16;5000880;28;20320;-83
2022/10/16 00:49:52;;;;;;;2.37;1.43;;;;;;;13.56;86.63;100366.25;4993566;28;20693;-84
2022/10/16 00:52:18;;;;;;;2.53;1.40;;;;;;;13.58;87.33;100366.97;4996613;28;20227;-83
2022/10/16 00:54:47;;;;;;;1.80;1.40;;;;;;;13.60;87.54;100369.53;5004805;28;20199;-83
2022/10/16 00:57:14;;;;;;;1.70;1.30;;;;;;;13.60;87.64;100375.72;5001030;28;20246;-84
2022/10/16 00:59:42;;;;;;;1.60;1.30;;;;;;;13.64;87.92;100373.63;5005651;28;20235;-84
2022/10/16 01:02:12;;;;;;;1.80;1.57;;;;;;;13.65;87.93;100381.53;5003973;28;20215;-84
2022/10/16 01:04:42;;;;;;;2.30;2.07;;;;;;;13.66;88.51;100380.56;4988116;28;20211;-83
2022/10/16 01:07:13;;;;;;;4.13;1.53;;;;;;;13.69;88.51;100374.13;4997482;28;20210;-84
2022/10/16 01:09:51;;;;;;;1.53;1.43;;;;;;;13.71;88.53;100378.38;4994103;28;20716;-84
2022/10/16 01:12:28;;;;;;;2.43;1.90;;;;;;;13.74;88.77;100371.94;4998204;28;20590;-83
2022/10/16 01:14:57;;;;;;;2.43;1.60;;;;;;;13.74;88.88;100379.97;5001051;28;20199;-84
2022/10/16 01:17:32;;;;;;;2.67;1.47;;;;;;;13.76;89.09;100378.88;4995993;28;20243;-84
2022/10/16 01:20:10;;;;;;;1.83;1.60;;;;;;;13.78;89.16;100366.22;5001155;28;20223;-83
2022/10/16 01:22:48;;;;;;;2.60;1.70;;;;;;;13.80;89.40;100368.75;4999716;28;20577;-84
2022/10/16 01:25:23;;;;;;;3.70;1.77;;;;;;;13.81;89.44;100370.44;4999755;28;20203;-84
2022/10/16 01:27:51;;;;;;;3.27;1.70;;;;;;;13.81;89.60;100373.97;5002261;28;20214;-84
2022/10/16 01:30:21;;;;;;;2.97;2.13;;;;;;;13.82;90.10;100378.34;4999048;28;20231;-83
2022/10/16 01:32:53;;;;;;;2.13;1.93;;;;;;;13.83;90.35;100380.06;5000200;28;20694;-84
2022/10/16 01:35:28;;;;;;;2.67;1.90;;;;;;;13.83;90.46;100372.03;5002711;28;20215;-83
2022/10/16 01:38:00;;;;;;;2.80;1.60;;;;;;;13.86;90.13;100377.13;4983195;28;20215;-83
2022/10/16 01:40:29;;;;;;;3.57;1.70;;;;;;;13.86;90.57;100379.81;5000761;28;20234;-84
2022/10/16 01:43:01;;;;;;;2.30;1.87;;;;;;;13.85;90.58;100383.47;5002366;28;20218;-83
2022/10/16 01:45:31;;;;;;;3.40;1.97;;;;;;;13.86;90.43;100390.50;4993265;28;20207;-84
2022/10/16 01:48:03;;;;;;;3.23;1.40;;;;;;;13.84;90.25;100391.63;4985972;28;20651;-84
2022/10/16 01:50:32;;;;;;;1.83;1.50;;;;;;;13.82;90.20;100402.44;4995779;28;20687;-84
2022/10/16 01:52:59;;;;;;;1.97;1.50;;;;;;;13.83;90.53;100401.47;5005950;28;20650;-83
2022/10/16 01:55:31;;;;;;;3.00;1.50;;;;;;;13.81;90.54;100403.41;4988970;28;20230;-84
2022/10/16 01:58:02;;;;;;;3.07;1.53;;;;;;;13.82;90.38;100391.72;4997278;28;20595;-83
2022/10/16 02:00:31;;;;;;;1.60;1.50;;;;;;;13.80;90.62;100404.38;4999873;28;20236;-84
2022/10/16 02:02:59;;;;;;;1.70;1.47;;;;;;;13.79;90.59;100394.66;5001302;28;20202;-84
2022/10/16 02:05:31;;;;;;;1.73;1.40;;;;;;;13.77;90.81;100407.34;4999882;28;20219;-84
2022/10/16 02:07:57;;;;;;;2.50;1.70;;;;;;;13.76;90.73;100410.97;4996015;28;20211;-84
2022/10/16 02:10:25;;;;;;;1.83;1.70;;;;;;;13.73;90.57;100411.22;5002990;28;20254;-84
2022/10/16 02:12:59;;;;;;;2.77;1.70;;;;;;;13.74;90.46;100412.94;4995835;28;20204;-84
2022/10/16 02:15:27;;;;;;;1.60;1.37;;;;;;;13.70;90.45;100414.13;4999320;28;20225;-84
2022/10/16 02:17:54;;;;;;;2.67;1.50;;;;;;;13.69;90.46;100415.13;4995734;28;20650;-84
2022/10/16 02:20:27;;;;;;;2.63;1.70;;;;;;;13.66;90.41;100425.22;4988350;28;20223;-83
2022/10/16 02:22:56;;;;;;;3.30;1.70;;;;;;;13.64;90.29;100428.00;5002683;28;20672;-84
2022/10/16 02:25:28;;;;;;;5.27;1.70;;;;;;;13.61;90.51;100433.63;4998257;28;20679;-84
2022/10/16 02:27:58;;;;;;;2.10;1.60;;;;;;;13.61;90.13;100438.13;4995235;28;20206;-83
2022/10/16 02:30:30;;;;;;;4.17;1.63;;;;;;;13.58;90.32;100433.00;4983832;28;20608;-84
2022/10/16 02:32:59;;;;;;;6.27;2.30;;;;;;;13.55;90.23;100442.97;4994977;28;20216;-84
2022/10/16 02:35:28;;;;;;;2.97;1.60;;;;;;;13.53;90.62;100436.91;4998159;28;20203;-84
2022/10/16 02:37:56;;;;;;;2.03;1.50;;;;;;;13.51;90.35;100432.63;4995286;28;20295;-83
2022/10/16 02:40:24;;;;;;;1.93;1.50;;;;;;;13.48;90.31;100432.88;4996213;28;20239;-83
2022/10/16 02:42:52;;;;;;;3.13;1.60;;;;;;;13.45;90.42;100428.59;5003574;28;20203;-83
2022/10/16 02:45:19;;;;;;;2.17;1.50;;;;;;;13.42;90.68;100431.53;5008930;28;20245;-84
2022/10/16 02:47:48;;;;;;;4.30;1.77;;;;;;;13.40;90.78;100424.59;4996442;28;20216;-84
2022/10/16 02:50:15;;;;;;;3.07;1.60;;;;;;;13.38;90.81;100424.72;5000191;28;20701;-84
2022/10/16 02:52:42;;;;;;;6.07;1.80;;;;;;;13.35;90.51;100421.44;5004073;28;20224;-84
2022/10/16 02:55:09;;;;;;;4.10;1.90;;;;;;;13.35;91.16;100426.78;4996809;28;20217;-84
2022/10/16 02:57:37;;;;;;;4.20;1.63;;;;;;;13.31;91.34;100419.97;4995700;28;20203;-84
2022/10/16 03:00:04;;;;;;;2.40;1.80;;;;;;;13.31;91.22;100420.81;5003236;28;20329;-83
2022/10/16 03:02:31;;;;;;;4.30;2.37;;;;;;;13.29;91.17;100419.22;4987727;28;20263;-83
2022/10/16 03:04:59;;;;;;;2.53;1.60;;;;;;;13.26;91.72;100423.00;4998848;28;20207;-83
2022/10/16 03:07:25;;;;;;;2.53;1.80;;;;;;;13.23;91.15;100411.72;4996078;28;20230;-83
2022/10/16 03:09:52;;;;;;;3.97;1.80;;;;;;;13.20;91.64;100413.66;5002667;28;20240;-82
2022/10/16 03:12:19;;;;;;;4.43;2.20;;;;;;;13.19;91.36;100414.63;4988767;28;20315;-83
2022/10/16 03:14:45;;;;;;;5.63;2.33;;;;;;;13.19;91.88;100411.09;4997749;28;20214;-83
2022/10/16 03:17:12;;;;;;;2.97;2.03;;;;;;;13.17;92.26;100411.22;4998195;28;20224;-82
2022/10/16 03:19:39;;;;;;;3.87;2.20;;;;;;;13.14;92.23;100415.91;4994796;28;20262;-82
2022/10/16 03:22:07;;;;;;;4.20;2.90;;;;;;;13.13;92.11;100411.53;4998015;28;20196;-82
2022/10/16 03:24:34;;;;;;;3.80;2.27;;;;;;;13.10;92.06;100417.94;4998416;28;20212;-82
2022/10/16 03:27:00;;;;;;;4.80;2.43;;;;;;;13.07;92.37;100420.91;4994109;28;20208;-83
2022/10/16 03:29:29;;;;;;;5.60;2.40;;;;;;;13.05;92.25;100413.97;4994414;28;20235;-83
2022/10/16 03:31:55;;;;;;;3.17;2.60;;;;;;;13.03;92.72;100422.09;5008338;28;20226;-83
2022/10/16 03:34:22;;;;;;;3.53;2.67;;;;;;;13.01;93.00;100426.69;4998735;28;20580;-83
2022/10/16 03:36:49;;;;;;;3.90;2.57;;;;;;;12.99;92.74;100430.47;5005736;28;20230;-83
2022/10/16 03:39:17;;;;;;;3.90;2.43;;;;;;;12.98;92.76;100418.91;5003680;28;20226;-82
2022/10/16 03:41:43;;;;;;;3.30;2.30;;;;;;;12.96;93.25;100420.00;4997532;28;20202;-82
2022/10/16 03:44:10;;;;;;;3.77;2.20;;;;;;;12.96;93.11;100434.22;4997912;28;20681;-82
2022/10/16 03:46:36;;;;;;;3.17;2.27;;;;;;;12.94;93.42;100438.81;5006486;28;20679;-82
2022/10/16 03:49:03;;;;;;;3.90;3.07;;;;;;;12.93;93.29;100436.25;5005662;28;20219;-82
2022/10/16 03:51:30;;;;;;;4.37;2.90;;;;;;;12.92;93.48;100426.53;5005883;28;20256;-82
2022/10/16 03:53:56;;;;;;;5.50;2.67;;;;;;;12.91;93.83;100433.72;4996926;28;20211;-82
2022/10/16 03:56:24;;;;;;;3.63;2.90;;;;;;;12.89;94.17;100424.13;4994721;28;20207;-84
2022/10/16 03:58:51;;;;;;;4.33;2.53;;;;;;;12.86;93.84;100425.22;4993481;28;20234;-82
2022/10/16 04:01:17;;;;;;;5.23;2.80;;;;;;;12.85;94.09;100420.84;4999508;28;20200;-82
2022/10/16 04:03:44;;;;;;;3.60;2.90;;;;;;;12.86;94.10;100435.91;4996688;28;20590;-82
2022/10/16 04:06:11;;;;;;;5.47;3.67;;;;;;;12.86;94.51;100430.56;4996992;28;20579;-82
2022/10/16 04:08:38;;;;;;;4.60;3.47;;;;;;;12.85;94.62;100428.84;5003277;28;20200;-82
2022/10/16 04:11:05;;;;;;;5.57;2.63;;;;;;;12.85;94.93;100418.16;4998473;28;20246;-82
2022/10/16 04:13:33;;;;;;;3.97;2.73;;;;;;;12.86;94.99;100420.72;5002503;28;20215;-83
2022/10/16 04:16:00;;;;;;;3.53;2.87;;;;;;;12.87;95.19;100429.59;5010904;28;20203;-82
2022/10/16 04:18:27;;;;;;;4.60;3.20;;;;;;;12.84;95.48;100435.16;5002681;28;20677;-84
2022/10/16 04:20:54;;;;;;;4.90;2.70;;;;;;;12.84;95.28;100451.19;4985615;28;20210;-82
2022/10/16 04:23:20;;;;;;;3.53;3.00;;;;;;;12.81;95.35;100444.25;5007050;28;20199;-82
2022/10/16 04:25:47;;;;;;;3.00;2.80;;;;;;;12.81;95.47;100452.28;4999004;28;20207;-83
2022/10/16 04:28:13;;;;;;;4.07;2.67;;;;;;;12.81;95.96;100454.09;5005449;28;20210;-83
2022/10/16 04:30:41;;;;;;;4.63;3.33;;;;;;;12.79;95.94;100462.22;4998945;28;20561;-83
2022/10/16 04:33:09;;;;;;;4.57;2.80;;;;;;;12.78;96.02;100459.66;5011281;28;20736;-83
2022/10/16 04:35:36;;;;;;;5.50;2.47;;;;;;;12.78;96.02;100457.00;5001915;28;20207;-82
2022/10/16 04:38:04;;;;;;;7.30;2.57;;;;;;;12.77;96.19;100457.97;5004453;28;20565;-83
2022/10/16 04:40:32;;;;;;;3.53;2.50;;;;;;;12.77;96.61;100458.81;4996354;28;20252;-81
2022/10/16 04:42:59;;;;;;;3.80;2.80;;;;;;;12.76;96.57;100457.09;4998497;28;20207;-81
2022/10/16 04:45:25;;;;;;;5.60;3.40;;;;;;;12.77;96.88;100447.28;4996741;28;20211;-81
2022/10/16 04:47:53;;;;;;;3.97;3.07;;;;;;;12.77;96.73;100445.44;4997835;28;20209;-81
2022/10/16 04:50:19;;;;;;;3.50;3.00;;;;;;;12.77;96.98;100452.63;4995257;28;20230;-82
2022/10/16 04:52:46;;;;;;;3.23;2.93;;;;;;;12.76;96.87;100451.75;4995921;28;20227;-82
2022/10/16 04:55:12;;;;;;;3.70;2.87;;;;;;;12.76;97.06;100450.91;4995421;28;20203;-82
2022/10/16 04:57:39;;;;;;;4.97;3.00;;;;;;;12.76;97.44;100462.44;4991297;28;21380;-82
2022/10/16 05:00:07;;;;;;;4.90;3.47;;;;;;;12.74;97.35;100464.38;4994809;28;20238;-81
2022/10/16 05:02:34;;;;;;;5.57;3.23;;;;;;;12.73;97.62;100470.69;4991076;28;20666;-81
2022/10/16 05:05:02;;;;;;;5.73;3.03;;;;;;;12.73;97.66;100454.66;4988864;28;20203;-81
2022/10/16 05:07:28;;;;;;;3.40;2.77;;;;;;;12.74;97.89;100471.53;4986934;28;20208;-81
2022/10/16 05:09:55;;;;;;;4.13;2.77;;;;;;;12.74;97.57;100484.91;4990673;28;20222;-81
2022/10/16 05:12:21;;;;;;;3.93;3.03;;;;;;;12.74;97.91;100477.75;4987849;28;20234;-82
2022/10/16 05:14:48;;;;;;;6.77;3.33;;;;;;;12.75;98.29;100465.22;4993866;28;20207;-81
2022/10/16 05:17:14;;;;;;;3.60;3.20;;;;;;;12.76;98.06;100469.63;4994018;28;20200;-81
2022/10/16 05:19:40;;;;;;;3.53;2.90;;;;;;;12.77;98.02;100476.66;5000747;28;20243;-81
2022/10/16 05:22:08;;;;;;;6.07;3.63;;;;;;;12.77;98.16;100471.31;4990982;28;20204;-81
2022/10/16 05:24:35;;;;;;;4.00;3.33;;;;;;;12.76;98.64;100475.81;4994862;28;20211;-81
2022/10/16 05:27:01;;;;;;;3.77;3.10;;;;;;;12.77;98.75;100479.34;4994967;28;20549;-81
2022/10/16 05:29:28;;;;;;;5.00;3.00;;;;;;;12.75;98.63;100482.13;4993711;28;20574;-81
2022/10/16 05:31:54;;;;;;;4.77;3.10;;;;;;;12.74;98.40;100484.91;4989681;28;20319;-81
2022/10/16 05:34:21;;;;;;;4.27;2.70;;;;;;;12.72;98.55;100489.53;4985485;28;20204;-81
2022/10/16 05:36:48;;;;;;;4.20;2.80;;;;;;;12.70;98.24;100497.66;4982180;28;20211;-81
2022/10/16 05:39:16;;;;;;;3.20;2.70;;;;;;;12.71;98.12;100503.88;4982923;28;20223;-82
2022/10/16 05:41:43;;;;;;;6.77;3.23;;;;;;;12.68;98.19;100501.41;4994937;28;20212;-82
2022/10/16 05:44:09;;;;;;;4.37;2.60;;;;;;;12.65;98.14;100504.31;4986763;28;20207;-81
2022/10/16 05:46:36;;;;;;;3.67;2.93;;;;;;;12.62;98.04;100505.38;4992503;28;20207;-82
2022/10/16 05:49:02;;;;;;;5.97;3.33;;;;;;;12.60;97.98;100501.13;4990995;28;20228;-82
2022/10/16 05:51:29;;;;;;;2.67;2.47;;;;;;;12.58;98.11;100508.41;4986654;28;20205;-82
2022/10/16 05:53:55;;;;;;;5.30;2.40;;;;;;;12.57;98.23;100507.53;4989554;28;20256;-81
2022/10/16 05:56:23;;;;;;;4.30;2.27;;;;;;;12.56;98.24;100502.31;4991110;28;20651;-81
2022/10/16 05:58:50;;;;;;;2.23;1.80;;;;;;;12.57;98.38;100506.69;4996761;28;20239;-81
2022/10/16 06:01:18;;;;;;;4.97;2.00;;;;;;;12.57;98.44;100517.38;4995461;28;20617;-83
2022/10/16 06:03:45;;;;;;;2.50;1.53;;;;;;;12.58;98.46;100527.94;4997091;28;20212;-81
2022/10/16 06:06:13;;;;;;;3.37;1.73;;;;;;;12.58;98.68;100535.09;4994431;28;20230;-82
2022/10/16 06:08:40;;;;;;;4.40;2.07;;;;;;;12.59;98.62;100528.81;4998729;28;20208;-82
2022/10/16 06:11:09;;;;;;;3.03;1.40;;;;;;;12.60;99.07;100531.38;4991009;28;20222;-81
2022/10/16 06:13:37;;;;;;;2.30;2.10;;;;;;;12.63;99.02;100528.47;5003609;28;20225;-82
2022/10/16 06:16:05;;;;;;;3.77;1.90;;;;;;;12.63;98.79;100525.81;4999239;28;20601;-83
2022/10/16 06:18:32;;;;;;;3.13;2.00;;;;;;;12.60;98.29;100526.03;4998382;28;20211;-82
2022/10/16 06:20:58;;;;;;;3.60;1.70;;;;;;;12.60;98.04;100527.84;4995114;28;20199;-82
2022/10/16 06:23:26;;;;;;;3.40;2.23;;;;;;;12.56;97.83;100537.88;4983887;28;20207;-82
2022/10/16 06:25:52;;;;;;;2.83;1.80;;;;;;;12.54;98.09;100542.50;4985142;28;20285;-82
2022/10/16 06:28:19;;;;;;;3.83;2.00;;;;;;;12.54;97.90;100557.69;4991341;28;20231;-83
2022/10/16 06:30:47;;;;;;;4.03;2.20;;;;;;;12.56;98.34;100547.72;4991482;28;20604;-83
2022/10/16 06:33:14;;;;;;;2.63;2.00;;;;;;;12.60;98.36;100562.56;4992946;28;21498;-82
2022/10/16 06:35:40;;;;;;;3.30;1.93;;;;;;;12.66;99.03;100562.13;4993130;28;20345;-81
2022/10/16 06:38:07;;;;;;;2.13;1.50;;;;;;;12.73;99.59;100558.88;4989566;28;20200;-81
2022/10/16 06:40:33;;;;;;;1.57;1.43;;;;;;;12.82;99.85;100546.66;4984937;28;20239;-82
2022/10/16 06:42:59;;;;;;;2.13;1.70;;;;;;;12.89;99.77;100553.28;4988147;28;20207;-82
2022/10/16 06:45:26;;;;;;;2.43;1.83;;;;;;;12.95;100.00;100576.84;4988111;28;20729;-83
2022/10/16 06:47:54;;;;;;;5.27;3.67;;;;;;;13.00;100.00;100565.84;4986536;28;20307;-82
2022/10/16 06:50:20;;;;;;;3.17;2.33;;;;;;;13.06;100.00;100566.25;4983092;28;20232;-83
2022/10/16 06:52:47;;;;;;;2.07;1.60;;;;;;;13.14;100.00;100577.19;4995256;28;20592;-83
2022/10/16 06:55:14;;;;;;;1.60;1.50;;;;;;;13.22;100.00;100570.47;4991253;28;20216;-83
2022/10/16 06:57:41;;;;;;;2.37;1.57;;;;;;;13.29;100.00;100577.88;5007546;28;20218;-83
2022/10/16 07:00:08;;;;;;;4.03;2.17;;;;;;;13.39;100.00;100584.25;4999716;28;20231;-82
2022/10/16 07:02:34;;;;;;;2.40;2.07;;;;;;;13.48;100.00;100585.38;4992024;28;20205;-82
2022/10/16 07:05:02;;;;;;;2.23;1.23;;;;;;;13.57;100.00;100586.50;4988686;28;20199;-82
2022/10/16 07:07:29;;;;;;;1.63;1.50;;;;;;;13.68;100.00;100579.34;4988925;28;20567;-83
2022/10/16 07:09:55;;;;;;;2.40;1.20;;;;;;;13.77;100.00;100584.00;4997110;28;20593;-83
2022/10/16 07:12:22;;;;;;;2.80;1.50;;;;;;;13.87;100.00;100576.94;4992044;28;20223;-83
2022/10/16 07:14:48;;;;;;;1.20;1.03;;;;;;;13.99;99.67;100584.97;4993544;28;20209;-82
2022/10/16 07:17:15;;;;;;;2.27;1.23;;;;;;;14.07;99.09;100602.16;4995194;28;20207;-83
2022/10/16 07:19:41;;;;;;;1.73;1.13;;;;;;;14.16;98.96;100600.56;4988972;28;20223;-82
2022/10/16 07:22:09;;;;;;;2.93;1.30;;;;;;;14.23;98.11;100591.94;4992864;28;20665;-82
2022/10/16 07:24:35;;;;;;;4.23;1.23;;;;;;;14.32;97.58;100602.91;4997625;28;20647;-83
2022/10/16 07:27:02;;;;;;;1.30;1.00;;;;;;;14.40;96.74;100603.13;4993547;28;20206;-83
2022/10/16 07:29:28;;;;;;;1.10;1.00;;;;;;;14.45;95.92;100607.19;4995380;28;20720;-82
2022/10/16 07:31:55;;;;;;;1.30;0.93;;;;;;;14.53;95.60;100604.72;4985579;28;21603;-82
2022/10/16 07:34:22;;;;;;;3.20;1.43;;;;;;;14.64;94.76;100608.38;4995041;28;20224;-83
2022/10/16 07:36:49;;;;;;;1.47;0.93;;;;;;;14.76;93.58;100620.78;4990937;28;20254;-83
2022/10/16 07:39:17;;;;;;;0.83;0.80;;;;;;;14.83;92.55;100630.03;4986819;28;20227;-83
2022/10/16 07:41:44;;;;;;;0.90;0.80;;;;;;;14.90;92.36;100628.56;4991873;28;20300;-83
2022/10/16 07:44:11;;;;;;;0.80;0.80;;;;;;;14.99;91.23;100624.28;4987417;28;20200;-82
2022/10/16 07:46:37;;;;;;;0.70;0.70;;;;;;;15.08;90.64;100616.31;5002716;28;20282;-83
2022/10/16 07:49:04;;;;;;;1.30;0.83;;;;;;;15.18;89.63;100628.00;4994719;28;20223;-83
2022/10/16 07:51:31;;;;;;;2.30;0.90;;;;;;;15.30;89.29;100639.53;4994798;28;20286;-82
2022/10/16 07:53:57;;;;;;;1.93;0.70;;;;;;;15.44;88.67;100641.06;4998594;28;20694;-83
2022/10/16 07:56:25;;;;;;;1.90;0.70;;;;;;;15.56;87.43;100651.69;4984770;28;20225;-83
2022/10/16 07:58:52;;;;;;;0.60;0.60;;;;;;;15.65;85.94;100647.34;4989726;28;20229;-82
2022/10/16 08:01:19;;;;;;;1.87;0.67;;;;;;;15.73;84.33;100650.25;4987874;28;20210;-82
2022/10/16 08:03:47;;;;;;;1.50;0.70;;;;;;;15.80;83.44;100643.34;4987775;28;20217;-82
2022/10/16 08:06:14;;;;;;;1.23;0.60;;;;;;;15.83;83.20;100661.91;4981836;28;21009;-81
2022/10/16 08:08:41;;;;;;;2.10;0.87;;;;;;;15.87;82.49;100652.59;4982879;28;20574;-82
2022/10/16 08:11:08;;;;;;;0.83;0.60;;;;;;;15.92;82.44;100658.44;4984507;28;20210;-81
2022/10/16 08:13:35;;;;;;;0.57;0.43;;;;;;;15.98;81.99;100655.22;4985580;28;20678;-83
2022/10/16 08:16:03;;;;;;;1.37;0.73;;;;;;;16.05;81.32;100665.44;4982213;28;20217;-83
2022/10/16 08:18:30;;;;;;;1.40;0.80;;;;;;;16.07;81.01;100680.44;4985503;28;20217;-83
2022/10/16 08:20:57;;;;;;;1.80;0.70;;;;;;;16.11;80.53;100689.97;4988646;28;20213;-81
2022/10/16 08:23:25;;;;;;;1.10;0.80;;;;;;;16.15;80.08;100685.16;4986442;28;20628;-81
2022/10/16 08:25:52;;;;;;;3.40;1.03;;;;;;;16.17;80.33;100686.72;4987902;28;20210;-81
2022/10/16 08:28:19;;;;;;;1.27;0.90;;;;;;;16.21;80.17;100692.69;4992965;28;20704;-81
2022/10/16 08:30:47;;;;;;;1.33;1.00;;;;;;;16.25;79.58;100688.75;4998854;28;20245;-82
2022/10/16 08:33:13;;;;;;;2.57;1.03;;;;;;;16.27;79.59;100695.72;4980785;28;20250;-81
2022/10/16 08:35:40;;;;;;;1.60;0.63;;;;;;;16.33;79.67;100697.00;4985629;28;20303;-82
2022/10/16 08:38:07;;;;;;;2.00;0.77;;;;;;;16.43;79.99;100697.91;4992718;28;20202;-83
2022/10/16 08:40:37;;;;;;;2.00;1.00;;;;;;;16.51;79.54;100692.72;4990787;28;20555;-82
2022/10/16 08:43:21;;;;;;;1.23;0.70;;;;;;;16.63;79.73;100694.38;4991128;28;20213;-82
2022/10/16 08:46:13;;;;;;;5.00;0.80;;;;;;;16.78;79.15;100694.84;4996227;28;20198;-82
2022/10/16 08:48:46;;;;;;;1.93;0.80;;;;;;;16.89;78.29;100691.19;4985217;28;20210;-83
2022/10/16 08:51:20;;;;;;;1.17;0.60;;;;;;;16.99;77.77;100700.16;4989413;28;20661;-83
2022/10/16 08:53:53;;;;;;;1.60;0.90;;;;;;;17.09;76.24;100701.03;4985283;28;20252;-83
2022/10/16 08:56:20;;;;;;;0.80;0.77;;;;;;;17.16;75.57;100706.72;4988520;28;20203;-83
2022/10/16 08:58:48;;;;;;;1.33;0.60;;;;;;;17.15;74.82;100699.66;4991653;28;20708;-83
2022/10/16 09:01:19;;;;;;;0.90;0.50;;;;;;;17.18;74.26;100704.75;4992999;28;20204;-81
2022/10/16 09:04:04;;;;;;;1.40;0.67;;;;;;;17.19;74.63;100710.00;4997095;28;20198;-81
2022/10/16 09:06:46;;;;;;;0.70;0.60;;;;;;;17.22;74.07;100703.47;4990883;28;20202;-81
2022/10/16 09:09:36;;;;;;;1.30;0.60;;;;;;;17.22;73.18;100715.09;4990175;28;20227;-82
2022/10/16 09:12:13;;;;;;;0.70;0.70;;;;;;;17.24;72.65;100709.56;4993363;28;20210;-81
2022/10/16 09:14:57;;;;;;;1.07;0.80;;;;;;;17.28;72.68;100728.00;4987541;28;20224;-81
2022/10/16 09:17:36;;;;;;;0.90;0.50;;;;;;;17.38;71.54;100719.94;4994360;28;20208;-81
2022/10/16 09:20:18;;;;;;;1.83;0.77;;;;;;;17.42;71.40;100717.81;4999110;28;20242;-81
2022/10/16 09:22:45;;;;;;;1.63;0.50;;;;;;;17.44;70.77;100715.84;4996354;28;20203;-81
2022/10/16 09:25:14;;;;;;;3.07;0.77;;;;;;;17.43;70.44;100731.13;4994968;28;20223;-81
2022/10/16 09:27:43;;;;;;;1.17;0.60;;;;;;;17.46;70.43;100730.88;4996532;28;20242;-81
2022/10/16 09:30:15;;;;;;;0.80;0.50;;;;;;;17.55;70.53;100723.81;4995261;28;20224;-81
2022/10/16 09:32:44;;;;;;;0.50;0.50;;;;;;;17.63;69.97;100729.31;4995610;28;20215;-81
2022/10/16 09:35:15;;;;;;;1.00;0.53;;;;;;;17.75;69.93;100733.59;4997782;28;20205;-81
2022/10/16 09:37:43;;;;;;;1.80;0.50;;;;;;;17.85;69.71;100729.09;4997957;28;20209;-81
2022/10/16 09:40:14;;;;;;;0.87;0.50;;;;;;;17.95;68.75;100738.00;4996755;28;20236;-80
2022/10/16 09:42:41;;;;;;;1.93;0.50;;;;;;;18.05;68.49;100748.81;4988127;28;20198;-80
2022/10/16 09:45:22;;;;;;;1.80;0.67;;;;;;;18.12;67.54;100749.06;4994030;28;20209;-81
2022/10/16 09:47:50;;;;;;;1.97;0.80;;;;;;;18.14;66.68;100742.53;4993219;28;20207;-81
2022/10/16 09:50:24;;;;;;;1.53;0.50;;;;;;;18.16;66.76;100753.19;4989566;28;20227;-81
2022/10/16 09:52:50;;;;;;;2.27;0.60;;;;;;;18.18;66.20;100751.19;4996760;28;20206;-81
2022/10/16 09:55:18;;;;;;;1.10;0.40;;;;;;;18.22;66.15;100760.72;4993089;28;20205;-81
2022/10/16 09:57:51;;;;;;;1.07;0.40;;;;;;;18.26;65.54;100756.72;4993300;28;20692;-81
2022/10/16 10:00:19;;;;;;;3.00;0.53;;;;;;;18.26;65.67;100754.91;4995969;28;20740;-81
2022/10/16 10:02:46;;;;;;;1.67;0.70;;;;;;;18.32;65.04;100769.63;4990555;28;20212;-81
2022/10/16 10:05:22;;;;;;;2.50;0.60;;;;;;;18.34;65.17;100773.03;4989882;28;20213;-81
2022/10/16 10:07:56;;;;;;;2.97;0.60;;;;;;;18.33;64.10;100768.63;4988357;28;20233;-81
2022/10/16 10:10:25;;;;;;;1.43;0.60;;;;;;;18.39;64.86;100778.84;4995425;28;20226;-81
2022/10/16 10:12:51;;;;;;;2.37;0.87;;;;;;;18.47;65.00;100780.81;4993893;28;20207;-81
2022/10/16 10:15:21;;;;;;;1.20;0.40;;;;;;;18.53;64.22;100759.50;4987324;28;20581;-81
2022/10/16 10:17:50;;;;;;;0.87;0.50;;;;;;;18.60;63.91;100774.16;4993123;28;20218;-81
2022/10/16 10:20:25;;;;;;;1.47;0.50;;;;;;;18.68;63.17;100768.00;4997385;28;20224;-82
2022/10/16 10:22:52;;;;;;;2.70;0.60;;;;;;;18.68;62.21;100778.81;4991172;28;20595;-81
2022/10/16 10:25:32;;;;;;;1.33;0.30;;;;;;;18.72;62.00;100774.81;4993813;28;20201;-82
2022/10/16 10:28:38;;;;;;;2.63;0.63;;;;;;;18.77;61.38;100774.41;4990307;28;20206;-82
2022/10/16 10:31:13;;;;;;;1.60;0.50;;;;;;;18.73;60.33;100777.38;4994177;28;20218;-82
2022/10/16 10:33:45;;;;;;;2.33;0.40;;;;;;;18.77;60.64;100787.88;4996973;28;20591;-82
2022/10/16 10:36:30;;;;;;;1.20;0.47;;;;;;;18.81;60.19;100794.69;4990801;28;20219;-82
2022/10/16 10:39:00;;;;;;;3.17;0.70;;;;;;;18.80;60.16;100790.28;4992463;28;20651;-82
2022/10/16 10:42:05;;;;;;;1.00;0.40;;;;;;;18.87;60.58;100788.69;4987959;28;20635;-81
2022/10/16 10:44:47;;;;;;;0.73;0.57;;;;;;;19.01;60.65;100791.75;4988362;28;20294;-81
2022/10/16 10:47:22;;;;;;;4.00;0.70;;;;;;;19.11;60.19;100804.38;4985583;28;20207;-82
2022/10/16 10:50:02;;;;;;;0.60;0.47;;;;;;;19.19;60.16;100799.06;4991883;28;20710;-82
2022/10/16 10:52:42;;;;;;;1.87;0.50;;;;;;;19.28;59.64;100792.78;4990212;28;20215;-82
2022/10/16 10:55:21;;;;;;;1.90;0.67;;;;;;;19.30;58.93;100805.16;4993056;28;20233;-82
2022/10/16 10:58:05;;;;;;;1.03;0.60;;;;;;;19.35;58.84;100805.53;4997353;28;20214;-82
2022/10/16 11:00:43;;;;;;;1.30;0.40;;;;;;;19.37;57.74;100802.69;4988889;28;20250;-83
2022/10/16 11:03:22;;;;;;;1.13;0.80;;;;;;;19.36;57.31;100814.50;4998310;28;20703;-80
2022/10/16 11:05:51;;;;;;;1.47;0.60;;;;;;;19.29;56.82;100814.25;5002218;28;20698;-81
2022/10/16 11:08:23;;;;;;;1.30;0.70;;;;;;;19.23;56.37;100812.13;4991547;28;20212;-82
2022/10/16 11:10:56;;;;;;;1.10;0.63;;;;;;;19.17;56.70;100814.59;4987593;28;20259;-82
2022/10/16 11:13:32;;;;;;;3.67;0.40;;;;;;;19.12;56.96;100809.63;4993851;28;20292;-82
2022/10/16 11:16:01;;;;;;;1.23;0.40;;;;;;;19.09;56.99;100815.34;4991479;28;20202;-82
2022/10/16 11:18:37;;;;;;;0.50;0.50;;;;;;;19.07;56.95;100817.31;4993346;28;20218;-82
2022/10/16 11:21:07;;;;;;;1.77;0.60;;;;;;;19.02;56.94;100806.09;4991531;28;20206;-82
2022/10/16 11:23:42;;;;;;;1.60;0.40;;;;;;;19.04;56.73;100806.81;4994983;28;20216;-82
2022/10/16 11:26:15;;;;;;;0.80;0.40;;;;;;;18.99;56.15;100807.25;4992894;28;20201;-83
2022/10/16 11:28:47;;;;;;;1.67;0.40;;;;;;;18.99;56.64;100814.50;4985939;28;20696;-82
2022/10/16 11:31:19;;;;;;;2.13;0.53;;;;;;;19.02;56.63;100815.06;4985514;28;20206;-84
2022/10/16 11:33:50;;;;;;;1.97;0.40;;;;;;;19.03;56.07;100824.84;4986790;28;20592;-83